Zova, Israel
Current Conditions -  °F | °C
As of 7:50 PM on Thursday 30 Oct 2014 (Local Time) from LLBG Reporting Station
Few Clouds Few Clouds  
Wind Chill: 70°   Ceiling: Unl
Heat Index: 70°   Visibility: 6mi
Dew Point: 59°   Wind: 6mph
Humidity: 68%   Direction: 150°SSE
Pressure: 29.94"   Gusts: NA
Location:  31.78°N, 35.12°E
Report Text: LLBG 301650Z 15005KT 9999 FEW040 21/15 Q1014 NOSIG RMK SCT090
Loading
Personal Weather Stations






























Interactive Weather Map
Tropical Storm Tracking
New forecast layout! Learn more

10-Day Weather Forecast

Advertisements
Track Severe Weather on mobile